Time;durP1;ratioP1;P1;durP2;ratioP2;P2;SDS_P1;SDS_P2;PMS_P1;PMS_P2;Temp;Humidity;BMP_temperature;BMP_pressure;BME280_temperature;BME280_humidity;BME280_pressure;Samples;Min_cycle;Max_cycle;Signal;HPM_P1;HPM_P2
2023/03/25 00:01:17;;;;;;;30.23;7.50;;;9.80;99.90;;;;;;6245407;23;20329;-78
2023/03/25 00:03:49;;;;;;;40.57;7.30;;;9.80;99.90;;;;;;6245356;23;20193;-78
2023/03/25 00:06:16;;;;;;;35.23;7.70;;;9.80;99.90;;;;;;6245356;23;20189;-78
2023/03/25 00:08:43;;;;;;;32.93;5.93;;;9.70;99.90;;;;;;6244604;23;20174;-77
2023/03/25 00:11:10;;;;;;;38.87;9.00;;;9.70;99.90;;;;;;6245500;23;20182;-78
2023/03/25 00:13:39;;;;;;;35.53;7.03;;;9.70;99.90;;;;;;6245541;23;20730;-78
2023/03/25 00:16:09;;;;;;;35.13;6.97;;;9.70;99.90;;;;;;6245114;23;20173;-79
2023/03/25 00:18:36;;;;;;;38.57;7.73;;;9.70;99.90;;;;;;6245977;22;20452;-77
2023/03/25 00:21:06;;;;;;;39.37;7.40;;;9.60;99.90;;;;;;6244826;23;20165;-79
2023/03/25 00:23:33;;;;;;;29.67;8.30;;;9.60;99.90;;;;;;6245574;23;20177;-78
2023/03/25 00:26:00;;;;;;;42.83;8.17;;;9.60;99.90;;;;;;6245199;23;20180;-79
2023/03/25 00:28:29;;;;;;;35.17;7.70;;;9.50;99.90;;;;;;6245087;23;20166;-77
2023/03/25 00:30:59;;;;;;;40.40;7.27;;;9.50;99.90;;;;;;6245376;23;20211;-77
2023/03/25 00:33:26;;;;;;;32.10;7.73;;;9.50;99.90;;;;;;6245340;23;20473;-78
2023/03/25 00:35:57;;;;;;;32.60;7.13;;;9.50;99.90;;;;;;6244104;23;20208;-80
2023/03/25 00:38:32;;;;;;;37.57;6.30;;;9.50;99.90;;;;;;6246640;23;20610;-81
2023/03/25 00:41:07;;;;;;;37.13;7.73;;;9.50;99.90;;;;;;6246093;23;20169;-79
2023/03/25 00:43:34;;;;;;;49.90;8.87;;;9.50;99.90;;;;;;6244980;23;20240;-81
2023/03/25 00:46:03;;;;;;;41.40;7.73;;;9.50;99.90;;;;;;6245718;23;20180;-80
2023/03/25 00:48:29;;;;;;;29.63;6.60;;;9.40;99.90;;;;;;6245469;23;20606;-79
2023/03/25 00:50:56;;;;;;;29.60;6.53;;;9.40;99.90;;;;;;6244551;23;20248;-79
2023/03/25 00:53:23;;;;;;;40.13;7.43;;;9.50;99.90;;;;;;6245898;23;20253;-78
2023/03/25 00:55:50;;;;;;;41.70;6.67;;;9.40;99.90;;;;;;6245024;23;20252;-78
2023/03/25 00:58:17;;;;;;;33.20;8.07;;;9.40;99.90;;;;;;6245420;23;20663;-80
2023/03/25 01:00:44;;;;;;;36.63;6.50;;;9.50;99.90;;;;;;6245227;23;20641;-80
2023/03/25 01:03:12;;;;;;;33.03;6.83;;;9.40;99.90;;;;;;6245026;23;20178;-83
2023/03/25 01:05:40;;;;;;;33.17;6.40;;;9.50;99.90;;;;;;6245965;23;20508;-80
2023/03/25 01:08:07;;;;;;;43.97;7.30;;;9.40;99.90;;;;;;6245736;23;20189;-79
2023/03/25 01:10:35;;;;;;;26.80;7.13;;;9.40;99.90;;;;;;6245532;23;20200;-79
2023/03/25 01:13:02;;;;;;;40.00;7.53;;;9.40;99.90;;;;;;6245424;23;20188;-81
2023/03/25 01:15:29;;;;;;;43.63;7.77;;;9.40;99.90;;;;;;6245370;23;20177;-82
2023/03/25 01:17:56;;;;;;;34.77;6.70;;;9.40;99.90;;;;;;6244838;22;20181;-81
2023/03/25 01:20:25;;;;;;;30.37;7.27;;;9.40;99.90;;;;;;6245324;23;20296;-82
2023/03/25 01:22:52;;;;;;;30.23;7.23;;;9.50;99.90;;;;;;6246055;23;20177;-84
2023/03/25 01:25:19;;;;;;;38.57;7.13;;;9.50;99.90;;;;;;6244743;23;20638;-84
2023/03/25 01:27:46;;;;;;;36.33;8.43;;;9.50;99.90;;;;;;6245619;23;20201;-81
2023/03/25 01:30:14;;;;;;;33.17;7.07;;;9.50;99.90;;;;;;6245655;23;20288;-82
2023/03/25 01:32:41;;;;;;;38.83;7.33;;;9.50;99.90;;;;;;6244903;23;20173;-81
2023/03/25 01:35:09;;;;;;;32.90;7.17;;;9.50;99.90;;;;;;6245336;23;20172;-81
2023/03/25 01:37:38;;;;;;;37.90;8.50;;;9.40;99.90;;;;;;6245170;23;20240;-80
2023/03/25 01:40:09;;;;;;;31.73;6.73;;;9.40;99.90;;;;;;6245505;23;20256;-81
2023/03/25 01:42:36;;;;;;;37.73;8.57;;;9.40;99.90;;;;;;6246522;23;20216;-84
2023/03/25 01:45:22;;;;;;;38.83;8.60;;;9.40;99.90;;;;;;6245410;23;20181;-78
2023/03/25 01:47:53;;;;;;;39.53;7.07;;;9.40;99.90;;;;;;6245283;23;20517;-82
2023/03/25 01:50:21;;;;;;;37.57;7.27;;;9.40;99.90;;;;;;6245883;23;20473;-77
2023/03/25 01:52:52;;;;;;;42.67;7.27;;;9.40;99.90;;;;;;6245231;23;20196;-79
2023/03/25 01:55:20;;;;;;;45.17;8.40;;;9.40;99.90;;;;;;6245628;23;20175;-82
2023/03/25 01:57:48;;;;;;;37.67;10.37;;;9.50;99.90;;;;;;6245371;23;20169;-79
2023/03/25 02:00:16;;;;;;;32.10;8.83;;;9.50;99.90;;;;;;6245774;23;20260;-83
2023/03/25 02:02:45;;;;;;;40.50;8.97;;;9.50;99.90;;;;;;6245569;23;20166;-81
2023/03/25 02:05:19;;;;;;;35.90;7.90;;;9.50;99.90;;;;;;6245568;23;20180;-80
2023/03/25 02:07:51;;;;;;;35.20;7.27;;;9.50;99.90;;;;;;6244521;23;20200;-77
2023/03/25 02:10:19;;;;;;;37.13;9.13;;;9.40;99.90;;;;;;6245830;23;20215;-81
2023/03/25 02:12:46;;;;;;;42.70;7.47;;;9.40;99.90;;;;;;6245056;23;20604;-84
2023/03/25 02:15:15;;;;;;;40.13;8.50;;;9.50;99.90;;;;;;6244389;23;20566;-78
2023/03/25 02:17:59;;;;;;;49.13;8.63;;;9.50;99.90;;;;;;6245290;22;20827;-79
2023/03/25 02:20:53;;;;;;;36.17;8.10;;;9.50;99.90;;;;;;6244975;23;20161;-82
2023/03/25 02:24:10;;;;;;;42.70;7.23;;;9.50;99.90;;;;;;6245188;23;20173;-83
2023/03/25 02:27:14;;;;;;;37.23;8.93;;;9.50;99.90;;;;;;6245573;23;20554;-83
2023/03/25 02:29:57;;;;;;;42.00;7.33;;;9.40;99.90;;;;;;6123134;23;20238;-83
2023/03/25 02:32:39;;;;;;;49.87;8.47;;;9.40;99.90;;;;;;6122804;23;20264;-82
2023/03/25 02:35:18;;;;;;;40.57;7.20;;;9.40;99.90;;;;;;6205506;23;20201;-81
2023/03/25 02:38:18;;;;;;;41.40;7.13;;;9.40;99.90;;;;;;6245528;23;20168;-81
2023/03/25 02:40:50;;;;;;;30.07;7.27;;;9.40;99.90;;;;;;6245446;23;20208;-81
2023/03/25 02:43:23;;;;;;;37.27;8.10;;;9.40;99.90;;;;;;6244483;23;20208;-81
2023/03/25 02:45:53;;;;;;;40.53;7.23;;;9.40;99.90;;;;;;6244904;23;20208;-82
2023/03/25 02:48:25;;;;;;;41.67;8.80;;;9.40;99.90;;;;;;6244475;23;20207;-80
2023/03/25 02:50:56;;;;;;;35.93;7.90;;;9.30;99.90;;;;;;6244905;23;20534;-83
2023/03/25 02:53:28;;;;;;;35.93;7.63;;;9.40;99.90;;;;;;6245001;23;20715;-81
2023/03/25 02:56:00;;;;;;;45.30;8.50;;;9.40;99.90;;;;;;6244008;23;20240;-83
2023/03/25 02:58:29;;;;;;;49.43;9.73;;;9.30;99.90;;;;;;6244736;23;20240;-80
2023/03/25 03:00:57;;;;;;;42.80;9.80;;;9.40;99.90;;;;;;6244453;23;20166;-80
2023/03/25 03:03:25;;;;;;;34.10;8.83;;;9.30;99.90;;;;;;6244810;23;20205;-79
2023/03/25 03:05:56;;;;;;;40.20;9.23;;;9.40;99.90;;;;;;6244965;23;20645;-80
2023/03/25 03:08:57;;;;;;;51.57;11.07;;;9.40;99.90;;;;;;6245860;23;20196;-80
2023/03/25 03:11:28;;;;;;;41.43;8.53;;;9.30;99.90;;;;;;6245868;23;20166;-80
2023/03/25 03:14:06;;;;;;;43.60;9.97;;;9.30;99.90;;;;;;6246742;23;20208;-78
2023/03/25 03:16:42;;;;;;;38.37;7.77;;;9.30;99.90;;;;;;6245774;22;20171;-79
2023/03/25 03:19:22;;;;;;;54.80;9.40;;;9.30;99.90;;;;;;6247983;23;20248;-79
2023/03/25 03:21:59;;;;;;;50.00;10.07;;;9.20;99.90;;;;;;6247351;23;20220;-80
2023/03/25 03:24:32;;;;;;;40.87;9.27;;;9.20;99.90;;;;;;6246021;23;20169;-82
2023/03/25 03:27:06;;;;;;;53.50;10.90;;;9.20;99.90;;;;;;6246593;23;20169;-83
2023/03/25 03:29:37;;;;;;;49.73;9.23;;;9.20;99.90;;;;;;6247296;23;20248;-82
2023/03/25 03:32:10;;;;;;;48.60;8.77;;;9.20;99.90;;;;;;6246385;23;20172;-80
2023/03/25 03:34:45;;;;;;;41.27;9.77;;;9.20;99.90;;;;;;6247530;23;20172;-82
2023/03/25 03:37:15;;;;;;;54.23;10.13;;;9.10;99.90;;;;;;6247096;23;20169;-82
2023/03/25 03:39:45;;;;;;;51.17;9.50;;;9.10;99.90;;;;;;6246576;23;20193;-82
2023/03/25 03:42:17;;;;;;;46.83;10.37;;;9.10;99.90;;;;;;6246995;23;20512;-83
2023/03/25 03:44:49;;;;;;;42.30;9.40;;;9.10;99.90;;;;;;6246212;23;20223;-81
2023/03/25 03:47:21;;;;;;;49.07;8.33;;;9.10;99.90;;;;;;6246820;23;20271;-80
2023/03/25 03:49:53;;;;;;;51.30;10.50;;;9.10;99.90;;;;;;6246258;23;20193;-77
2023/03/25 03:52:24;;;;;;;41.90;9.17;;;9.10;99.90;;;;;;6246547;23;20781;-81
2023/03/25 03:54:56;;;;;;;40.73;8.20;;;9.10;99.90;;;;;;6246256;23;20216;-79
2023/03/25 03:57:28;;;;;;;44.90;10.03;;;9.10;99.90;;;;;;6246382;23;20240;-81
2023/03/25 04:00:03;;;;;;;52.30;10.23;;;9.10;99.90;;;;;;6244853;23;20321;-80
2023/03/25 04:02:38;;;;;;;51.77;8.83;;;9.20;99.90;;;;;;6246049;23;20199;-80
2023/03/25 04:05:07;;;;;;;51.50;11.47;;;9.10;99.90;;;;;;6245913;23;20169;-81
2023/03/25 04:07:40;;;;;;;47.53;8.73;;;9.10;99.90;;;;;;6245104;23;20198;-81
2023/03/25 04:10:14;;;;;;;56.53;9.40;;;9.10;99.90;;;;;;6245469;23;20174;-81
2023/03/25 04:12:45;;;;;;;55.80;10.00;;;9.10;99.90;;;;;;6246847;23;20174;-80
2023/03/25 04:15:13;;;;;;;52.07;9.33;;;9.10;99.90;;;;;;6245693;23;20727;-77
2023/03/25 04:17:41;;;;;;;48.20;9.97;;;9.10;99.90;;;;;;6246291;22;20181;-81
2023/03/25 04:20:13;;;;;;;49.47;11.83;;;9.10;99.90;;;;;;6245532;23;20197;-82
2023/03/25 04:22:44;;;;;;;45.70;10.10;;;9.10;99.90;;;;;;6246677;23;20685;-83
2023/03/25 04:25:14;;;;;;;44.80;9.47;;;9.10;99.90;;;;;;6246666;23;20168;-83
2023/03/25 04:27:47;;;;;;;48.70;9.87;;;9.10;99.90;;;;;;6246117;23;20243;-80
2023/03/25 04:30:16;;;;;;;44.97;9.63;;;9.10;99.90;;;;;;6246303;23;20587;-81
2023/03/25 04:32:45;;;;;;;46.77;9.87;;;9.10;99.90;;;;;;6246675;23;20177;-80
2023/03/25 04:35:12;;;;;;;48.73;11.03;;;9.10;99.90;;;;;;6245950;23;20166;-79
2023/03/25 04:37:40;;;;;;;44.97;10.13;;;9.10;99.90;;;;;;6246453;23;20437;-80
2023/03/25 04:40:09;;;;;;;46.00;9.63;;;9.10;99.90;;;;;;6246816;23;20196;-80
2023/03/25 04:42:37;;;;;;;53.17;9.13;;;9.10;99.90;;;;;;6246097;23;20205;-82
2023/03/25 04:45:06;;;;;;;44.17;9.03;;;9.10;99.90;;;;;;6246567;23;20196;-80
2023/03/25 04:47:33;;;;;;;45.60;8.93;;;9.10;99.90;;;;;;6246864;23;20193;-81
2023/03/25 04:50:00;;;;;;;53.37;11.03;;;9.10;99.90;;;;;;6245240;23;20279;-82
2023/03/25 04:52:27;;;;;;;40.77;9.37;;;9.10;99.90;;;;;;6246170;23;20166;-82
2023/03/25 04:54:54;;;;;;;46.37;8.30;;;9.10;99.90;;;;;;6246406;23;20472;-81
2023/03/25 04:57:21;;;;;;;41.47;8.33;;;9.10;99.90;;;;;;6246444;23;20193;-81
2023/03/25 04:59:49;;;;;;;57.03;10.37;;;9.10;99.90;;;;;;6245816;23;20192;-83
2023/03/25 05:02:17;;;;;;;46.60;9.53;;;9.00;99.90;;;;;;6245816;23;20257;-82
2023/03/25 05:04:46;;;;;;;50.83;8.10;;;9.00;99.90;;;;;;6246055;23;20453;-78
2023/03/25 05:07:15;;;;;;;50.07;8.30;;;9.10;99.90;;;;;;6246386;23;20227;-81
2023/03/25 05:09:42;;;;;;;35.83;8.13;;;9.00;99.90;;;;;;6245644;23;20166;-83
2023/03/25 05:12:10;;;;;;;40.03;7.57;;;9.00;99.90;;;;;;6245746;23;20367;-80
2023/03/25 05:14:37;;;;;;;31.90;7.10;;;9.00;99.90;;;;;;6246428;23;20169;-82
2023/03/25 05:17:05;;;;;;;41.03;8.70;;;9.00;99.90;;;;;;6245361;22;20268;-77
2023/03/25 05:19:33;;;;;;;36.20;8.07;;;9.00;99.90;;;;;;6245969;23;20245;-82
2023/03/25 05:22:03;;;;;;;48.17;9.97;;;9.00;99.90;;;;;;6245948;23;20200;-78
2023/03/25 05:24:30;;;;;;;33.53;7.47;;;9.00;99.90;;;;;;6245437;23;20231;-82
2023/03/25 05:27:01;;;;;;;36.27;8.27;;;9.00;99.90;;;;;;6245307;23;20166;-80
2023/03/25 05:29:32;;;;;;;53.40;8.33;;;9.00;99.90;;;;;;6245356;23;20209;-78
2023/03/25 05:31:59;;;;;;;42.47;8.50;;;9.00;99.90;;;;;;6244864;23;20592;-78
2023/03/25 05:34:28;;;;;;;34.03;7.47;;;9.10;99.90;;;;;;6245552;23;20237;-78
2023/03/25 05:36:55;;;;;;;46.37;7.97;;;9.10;99.90;;;;;;6246219;23;20205;-81
2023/03/25 05:39:23;;;;;;;38.17;8.27;;;9.10;99.90;;;;;;6245289;23;20173;-81
2023/03/25 05:41:54;;;;;;;42.97;7.80;;;9.20;99.90;;;;;;6245275;23;20227;-80
2023/03/25 05:44:21;;;;;;;26.90;6.30;;;9.20;99.90;;;;;;6245597;23;20241;-81
2023/03/25 05:46:48;;;;;;;34.70;8.80;;;9.10;99.90;;;;;;6245852;23;20248;-81
2023/03/25 05:49:15;;;;;;;34.37;7.43;;;9.20;99.90;;;;;;6245512;23;20530;-82
2023/03/25 05:51:43;;;;;;;34.80;7.43;;;9.20;99.90;;;;;;6244698;23;20236;-80
2023/03/25 05:54:10;;;;;;;30.13;7.13;;;9.20;99.90;;;;;;6245458;23;20165;-82
2023/03/25 05:56:37;;;;;;;37.97;8.13;;;9.20;99.90;;;;;;6245423;23;20449;-84
2023/03/25 05:59:04;;;;;;;35.73;6.70;;;9.30;99.90;;;;;;6245380;23;20653;-79
2023/03/25 06:01:32;;;;;;;40.77;8.77;;;9.30;99.90;;;;;;6246323;23;20200;-84
2023/03/25 06:04:00;;;;;;;29.43;7.27;;;9.30;99.90;;;;;;6246259;23;20180;-81
2023/03/25 06:06:28;;;;;;;33.57;7.10;;;9.30;99.90;;;;;;6245150;23;20172;-80
2023/03/25 06:08:56;;;;;;;38.23;6.77;;;9.30;99.90;;;;;;6245617;23;20189;-82
2023/03/25 06:11:23;;;;;;;27.67;6.40;;;9.20;99.90;;;;;;6246691;23;20177;-82
2023/03/25 06:13:50;;;;;;;34.70;7.90;;;9.20;99.90;;;;;;6244946;23;20604;-79
2023/03/25 06:16:20;;;;;;;38.57;7.83;;;9.20;99.90;;;;;;6246493;23;20197;-81
2023/03/25 06:18:49;;;;;;;29.77;5.67;;;9.20;99.90;;;;;;6245833;22;20185;-82
2023/03/25 06:21:18;;;;;;;25.37;5.87;;;9.10;99.90;;;;;;6244661;23;20174;-79
2023/03/25 06:23:45;;;;;;;31.60;6.60;;;9.10;99.90;;;;;;6245032;23;20245;-79
2023/03/25 06:26:13;;;;;;;27.43;6.00;;;9.20;99.90;;;;;;6244056;23;20173;-81
2023/03/25 06:28:40;;;;;;;36.47;6.67;;;9.20;99.90;;;;;;6244378;23;20493;-77
2023/03/25 06:31:15;;;;;;;39.80;8.40;;;9.20;99.90;;;;;;6244067;23;20189;-79
2023/03/25 06:36:43;;;;;;;35.23;6.40;;;9.20;99.90;;;;;;6268807;22;20214;-80
2023/03/25 06:39:10;;;;;;;29.60;5.90;;;9.20;99.90;;;;;;6181585;22;20204;-79
2023/03/25 06:41:39;;;;;;;27.57;6.10;;;9.30;99.90;;;;;;6305133;22;20625;-78
2023/03/25 06:44:06;;;;;;;33.03;6.63;;;9.30;99.90;;;;;;6306036;22;20237;-78
2023/03/25 06:46:32;;;;;;;25.83;5.90;;;9.30;99.90;;;;;;6306309;22;20196;-79
2023/03/25 06:48:59;;;;;;;27.53;6.73;;;9.40;99.90;;;;;;6305678;22;20457;-80
2023/03/25 06:51:26;;;;;;;26.43;6.17;;;9.40;99.90;;;;;;6305704;22;20251;-76
2023/03/25 06:53:53;;;;;;;30.20;6.77;;;9.50;99.90;;;;;;6305716;22;20164;-78
2023/03/25 06:56:20;;;;;;;30.13;5.50;;;9.50;99.90;;;;;;6305822;22;20247;-76
2023/03/25 06:58:49;;;;;;;28.57;5.40;;;9.50;99.90;;;;;;6306222;22;20686;-77
2023/03/25 07:01:16;;;;;;;28.20;5.43;;;9.60;99.90;;;;;;6306103;22;20218;-80
2023/03/25 07:03:43;;;;;;;29.17;6.67;;;9.60;99.90;;;;;;6305552;22;20172;-77
2023/03/25 07:06:16;;;;;;;28.73;5.97;;;9.60;99.90;;;;;;6306164;22;20222;-78
2023/03/25 07:08:43;;;;;;;26.50;5.07;;;9.60;99.90;;;;;;6305829;22;20209;-78
2023/03/25 07:11:12;;;;;;;28.43;5.97;;;9.70;99.90;;;;;;6305717;22;20248;-77
2023/03/25 07:13:39;;;;;;;34.87;6.60;;;9.70;99.90;;;;;;6306260;22;20164;-76
2023/03/25 07:16:10;;;;;;;29.20;6.47;;;9.70;99.90;;;;;;6305018;22;20211;-78
2023/03/25 07:18:37;;;;;;;33.40;5.97;;;9.70;99.90;;;;;;6275480;22;20187;-80
2023/03/25 07:21:04;;;;;;;29.17;6.30;;;9.70;99.90;;;;;;6275196;22;20177;-78
2023/03/25 07:23:31;;;;;;;32.53;7.43;;;9.70;99.90;;;;;;6273889;22;20173;-79
2023/03/25 07:25:58;;;;;;;25.13;6.23;;;9.80;99.90;;;;;;6274970;22;20222;-79
2023/03/25 07:28:25;;;;;;;28.33;6.73;;;9.90;99.90;;;;;;6274357;22;20216;-78
2023/03/25 07:30:52;;;;;;;30.40;5.73;;;9.90;99.90;;;;;;6274048;22;20177;-80
2023/03/25 07:33:21;;;;;;;26.60;5.57;;;9.90;99.90;;;;;;6275409;22;20238;-78
2023/03/25 07:35:48;;;;;;;19.80;4.80;;;10.00;99.90;;;;;;6275500;22;20400;-79
2023/03/25 07:38:15;;;;;;;25.53;6.07;;;10.00;99.90;;;;;;6275044;22;20184;-80
2023/03/25 07:40:42;;;;;;;22.70;4.80;;;10.10;99.90;;;;;;6276521;22;20177;-81
2023/03/25 07:43:09;;;;;;;26.40;6.10;;;10.00;99.90;;;;;;6275616;22;20242;-79
2023/03/25 07:45:36;;;;;;;25.27;6.37;;;10.00;99.90;;;;;;6274948;22;20246;-82
2023/03/25 07:48:04;;;;;;;29.50;5.83;;;10.10;99.90;;;;;;6274878;22;20176;-85
2023/03/25 07:50:32;;;;;;;26.23;5.10;;;10.10;99.90;;;;;;6275681;22;20173;-83
2023/03/25 07:52:59;;;;;;;26.93;5.33;;;10.10;99.90;;;;;;6274354;22;20230;-81
2023/03/25 07:55:26;;;;;;;26.43;6.37;;;10.20;99.90;;;;;;6276153;22;20176;-82
2023/03/25 07:57:53;;;;;;;27.20;5.33;;;10.30;99.90;;;;;;6275066;22;20176;-80
2023/03/25 08:00:21;;;;;;;26.33;4.60;;;10.40;99.90;;;;;;6277384;22;20171;-78
2023/03/25 08:02:48;;;;;;;23.30;5.43;;;10.40;99.90;;;;;;6275492;22;20223;-81
2023/03/25 08:05:19;;;;;;;26.90;6.00;;;10.50;99.90;;;;;;6275805;22;20283;-81
2023/03/25 08:07:49;;;;;;;32.07;5.77;;;10.60;99.90;;;;;;6277170;22;20168;-80
2023/03/25 08:10:16;;;;;;;27.70;4.90;;;10.70;99.90;;;;;;6275835;22;20604;-81
2023/03/25 08:12:44;;;;;;;20.97;5.40;;;10.80;99.90;;;;;;6275688;22;20172;-76
2023/03/25 08:15:13;;;;;;;24.53;6.13;;;10.70;99.90;;;;;;6276203;22;20180;-78
2023/03/25 08:17:40;;;;;;;20.97;4.77;;;10.70;99.90;;;;;;6275168;22;20185;-78
2023/03/25 08:20:09;;;;;;;30.27;7.63;;;10.70;99.90;;;;;;6274955;22;20172;-77
2023/03/25 08:22:37;;;;;;;29.97;5.87;;;10.70;99.90;;;;;;6275742;22;20552;-79
2023/03/25 08:25:07;;;;;;;28.03;5.60;;;10.70;99.90;;;;;;6275799;22;20177;-81
2023/03/25 08:27:34;;;;;;;25.33;5.00;;;10.70;99.90;;;;;;6274931;22;20183;-78
2023/03/25 08:30:01;;;;;;;29.00;6.47;;;10.70;99.90;;;;;;6275823;22;20259;-78
2023/03/25 08:32:28;;;;;;;24.83;5.83;;;10.80;99.90;;;;;;6276399;22;20218;-80
2023/03/25 08:34:55;;;;;;;26.00;5.20;;;10.80;99.90;;;;;;6276371;22;20168;-80
2023/03/25 08:37:24;;;;;;;36.73;6.37;;;10.80;99.90;;;;;;6277331;22;20169;-80
2023/03/25 08:39:54;;;;;;;30.83;6.23;;;10.80;99.90;;;;;;6276050;22;20211;-80
2023/03/25 08:42:23;;;;;;;30.07;5.43;;;10.80;99.90;;;;;;6276446;22;20165;-81
2023/03/25 08:44:50;;;;;;;22.00;4.93;;;10.80;99.90;;;;;;6276796;22;20718;-79
2023/03/25 08:47:17;;;;;;;26.93;5.13;;;10.80;99.90;;;;;;6276572;22;20168;-78
2023/03/25 08:49:44;;;;;;;25.90;6.07;;;10.90;99.90;;;;;;6276611;22;20266;-79
2023/03/25 08:52:11;;;;;;;29.67;5.63;;;11.10;99.90;;;;;;6276377;22;20246;-80
2023/03/25 08:54:38;;;;;;;23.30;5.70;;;11.10;99.90;;;;;;6275883;22;20226;-80
2023/03/25 08:57:05;;;;;;;22.03;4.97;;;11.20;99.90;;;;;;6277041;22;20444;-81
2023/03/25 08:59:34;;;;;;;15.97;4.43;;;11.20;99.90;;;;;;6277118;22;20423;-81
2023/03/25 09:02:01;;;;;;;26.97;5.10;;;11.20;99.90;;;;;;6275145;22;20252;-79
2023/03/25 09:04:29;;;;;;;21.37;4.37;;;11.20;99.90;;;;;;6276107;22;20187;-79
2023/03/25 09:06:57;;;;;;;16.50;4.90;;;11.20;99.90;;;;;;6275727;22;20179;-78
2023/03/25 09:09:24;;;;;;;22.43;5.17;;;11.30;99.90;;;;;;6275974;22;20193;-79
2023/03/25 09:11:51;;;;;;;21.47;4.83;;;11.30;99.90;;;;;;6276641;22;20263;-80
2023/03/25 09:14:18;;;;;;;25.23;4.60;;;11.40;99.90;;;;;;6276552;22;20238;-79
2023/03/25 09:16:46;;;;;;;23.80;4.67;;;11.30;99.90;;;;;;6275678;22;20303;-79
2023/03/25 09:19:13;;;;;;;29.93;5.37;;;11.30;99.90;;;;;;6275796;22;20179;-80
2023/03/25 09:21:40;;;;;;;25.80;5.47;;;11.30;99.90;;;;;;6276514;22;20173;-80
2023/03/25 09:24:08;;;;;;;25.43;6.07;;;11.30;99.90;;;;;;6274914;22;20181;-80
2023/03/25 09:26:37;;;;;;;33.47;6.57;;;11.40;99.90;;;;;;6276595;22;20207;-80
2023/03/25 09:29:04;;;;;;;28.57;6.57;;;11.40;99.90;;;;;;6276102;22;20663;-77
2023/03/25 09:31:32;;;;;;;26.50;5.27;;;11.50;99.90;;;;;;6275272;22;20232;-82
2023/03/25 09:34:00;;;;;;;25.03;6.07;;;11.60;99.90;;;;;;6276442;22;20679;-82
2023/03/25 09:36:27;;;;;;;26.87;5.37;;;11.70;99.90;;;;;;6276369;22;20249;-78
2023/03/25 09:38:54;;;;;;;21.77;5.53;;;11.80;99.90;;;;;;6276879;22;20200;-81
2023/03/25 09:41:34;;;;;;;19.77;4.90;;;11.90;99.90;;;;;;6277169;22;20164;-82
2023/03/25 09:44:09;;;;;;;27.20;6.10;;;12.00;99.90;;;;;;6275654;22;20200;-81
2023/03/25 09:46:37;;;;;;;21.77;5.40;;;12.10;99.90;;;;;;6275906;22;20701;-79
2023/03/25 09:49:12;;;;;;;24.60;4.67;;;12.20;99.90;;;;;;6275769;22;20201;-79
2023/03/25 09:51:41;;;;;;;26.37;5.30;;;12.20;99.90;;;;;;6275731;22;20239;-80
2023/03/25 09:54:16;;;;;;;20.03;4.97;;;12.20;99.90;;;;;;6276028;22;20172;-80
2023/03/25 09:56:44;;;;;;;26.47;5.83;;;12.20;99.90;;;;;;6276141;22;20180;-82
2023/03/25 09:59:16;;;;;;;21.20;5.20;;;12.20;99.90;;;;;;6274838;22;20604;-83
2023/03/25 10:01:49;;;;;;;25.10;4.77;;;12.30;99.90;;;;;;6275426;22;20653;-79
2023/03/25 10:04:42;;;;;;;30.20;6.40;;;12.20;99.90;;;;;;6275754;22;20240;-79
2023/03/25 10:07:24;;;;;;;25.47;6.07;;;12.20;99.90;;;;;;6275908;22;20644;-81
2023/03/25 10:10:00;;;;;;;24.80;4.80;;;12.20;99.90;;;;;;6276429;22;20588;-81
2023/03/25 10:12:37;;;;;;;24.07;5.43;;;12.30;99.90;;;;;;6275712;22;20215;-83
2023/03/25 10:15:17;;;;;;;35.67;6.67;;;12.40;99.90;;;;;;6276586;22;20576;-83
2023/03/25 10:17:56;;;;;;;24.80;5.83;;;12.50;99.90;;;;;;6274878;22;20184;-81
2023/03/25 10:20:38;;;;;;;29.37;6.23;;;12.50;99.90;;;;;;6276042;22;20190;-84
2023/03/25 10:23:15;;;;;;;26.57;6.07;;;12.60;99.90;;;;;;6275998;22;20690;-83
2023/03/25 10:25:47;;;;;;;30.33;6.43;;;12.80;99.90;;;;;;6275456;22;20167;-84
2023/03/25 10:28:19;;;;;;;26.90;5.70;;;12.80;99.90;;;;;;6276316;22;20240;-84
2023/03/25 10:30:51;;;;;;;25.77;5.77;;;12.70;99.90;;;;;;6277535;22;20592;-83
2023/03/25 10:33:26;;;;;;;27.50;5.57;;;12.70;99.90;;;;;;6275814;22;20179;-82
2023/03/25 10:35:57;;;;;;;29.47;6.13;;;12.80;99.90;;;;;;6275769;22;20164;-81
2023/03/25 10:38:24;;;;;;;25.23;5.70;;;12.90;99.90;;;;;;6276840;22;20168;-84
2023/03/25 10:40:59;;;;;;;28.53;7.10;;;13.00;99.90;;;;;;6276612;22;20607;-83
2023/03/25 10:43:29;;;;;;;28.53;5.77;;;13.00;99.90;;;;;;6276553;22;20161;-87
2023/03/25 10:46:00;;;;;;;25.97;5.87;;;13.00;99.90;;;;;;6276682;22;20241;-83
2023/03/25 10:48:29;;;;;;;28.57;5.70;;;13.00;99.90;;;;;;6275983;22;20168;-84
2023/03/25 10:51:03;;;;;;;23.33;5.87;;;13.00;99.90;;;;;;6276460;22;20263;-84
2023/03/25 10:53:31;;;;;;;28.23;6.60;;;13.00;99.90;;;;;;6273492;22;20152;-83
2023/03/25 10:56:02;;;;;;;34.40;6.73;;;13.10;99.90;;;;;;6275202;22;20172;-84
2023/03/25 10:58:30;;;;;;;30.60;7.73;;;13.00;99.90;;;;;;6275888;22;20176;-83
2023/03/25 11:00:57;;;;;;;31.27;6.20;;;12.90;99.90;;;;;;6276216;22;20167;-78
2023/03/25 11:03:30;;;;;;;26.80;5.33;;;12.90;99.90;;;;;;6275158;22;20199;-77
2023/03/25 11:05:58;;;;;;;28.57;6.73;;;13.10;99.90;;;;;;6275841;22;20252;-81
2023/03/25 11:08:26;;;;;;;30.93;6.17;;;13.10;99.90;;;;;;6275327;22;20546;-82
2023/03/25 11:10:56;;;;;;;24.87;6.10;;;13.30;99.90;;;;;;6275710;22;20184;-82
2023/03/25 11:13:25;;;;;;;26.27;5.63;;;13.50;99.90;;;;;;6275139;22;20207;-81
2023/03/25 11:15:54;;;;;;;25.43;5.40;;;13.50;99.90;;;;;;6275542;22;20513;-80
2023/03/25 11:18:26;;;;;;;19.90;5.53;;;13.50;99.90;;;;;;6274652;22;20185;-83
2023/03/25 11:20:57;;;;;;;26.83;6.03;;;13.50;99.90;;;;;;6275600;22;20688;-82
2023/03/25 11:23:31;;;;;;;27.50;6.17;;;13.30;99.90;;;;;;6275844;22;20570;-82
2023/03/25 11:26:04;;;;;;;28.03;6.97;;;13.20;99.90;;;;;;6275736;22;20255;-79
2023/03/25 11:28:37;;;;;;;19.97;5.43;;;13.10;99.90;;;;;;6275842;22;20276;-78
2023/03/25 11:31:13;;;;;;;34.53;6.07;;;13.20;99.90;;;;;;6277292;22;20196;-81
2023/03/25 11:33:41;;;;;;;29.43;6.43;;;13.10;99.90;;;;;;6277672;22;20542;-82
2023/03/25 11:36:27;;;;;;;31.53;8.17;;;13.10;99.90;;;;;;6276313;22;20173;-78
2023/03/25 11:38:59;;;;;;;23.30;6.00;;;13.20;99.90;;;;;;6276171;22;20258;-78
2023/03/25 11:41:34;;;;;;;25.90;6.70;;;13.10;99.90;;;;;;6277440;22;20196;-82
2023/03/25 11:44:02;;;;;;;22.83;5.60;;;13.00;99.90;;;;;;6276166;22;20609;-80
2023/03/25 11:46:29;;;;;;;25.60;6.10;;;13.00;99.90;;;;;;6277470;22;20211;-79
2023/03/25 11:48:56;;;;;;;26.83;6.00;;;13.20;99.90;;;;;;6277141;22;20175;-79
2023/03/25 11:51:28;;;;;;;35.73;7.93;;;13.40;99.90;;;;;;6276762;22;20463;-80
2023/03/25 11:54:00;;;;;;;30.77;8.20;;;13.60;99.90;;;;;;6277570;22;20172;-81
2023/03/25 11:56:32;;;;;;;26.27;5.77;;;13.80;99.90;;;;;;6276949;22;20185;-78
2023/03/25 11:59:01;;;;;;;28.93;6.57;;;14.00;99.90;;;;;;6275953;22;20157;-80
2023/03/25 12:01:36;;;;;;;22.63;6.00;;;14.30;99.90;;;;;;6275881;22;20173;-81
2023/03/25 12:04:12;;;;;;;19.73;5.87;;;14.40;99.90;;;;;;6275058;22;20247;-80
2023/03/25 12:06:53;;;;;;;29.93;6.33;;;14.50;99.90;;;;;;6276680;22;20191;-83
2023/03/25 12:09:22;;;;;;;27.50;5.70;;;14.50;99.90;;;;;;6273270;22;20173;-80
2023/03/25 12:12:02;;;;;;;29.83;6.87;;;14.40;99.90;;;;;;6274706;22;20192;-81
2023/03/25 12:14:36;;;;;;;22.63;5.33;;;14.30;99.90;;;;;;6276203;22;20173;-81
2023/03/25 12:17:09;;;;;;;33.13;6.60;;;14.10;99.90;;;;;;6276397;22;20238;-80
2023/03/25 12:19:48;;;;;;;29.43;5.87;;;14.10;99.90;;;;;;6275595;22;20167;-80
2023/03/25 12:22:29;;;;;;;29.10;5.93;;;14.10;99.90;;;;;;6276975;22;20235;-79
2023/03/25 12:25:07;;;;;;;24.50;6.67;;;14.00;99.90;;;;;;6277108;22;20196;-79
2023/03/25 12:27:44;;;;;;;29.87;6.23;;;13.80;99.90;;;;;;6276509;22;20165;-80
2023/03/25 12:30:21;;;;;;;30.03;6.30;;;13.90;99.90;;;;;;6277166;22;20444;-81
2023/03/25 12:32:56;;;;;;;24.60;5.80;;;13.90;99.90;;;;;;6276302;22;20184;-79
2023/03/25 12:35:31;;;;;;;18.80;4.70;;;14.00;99.90;;;;;;6277423;22;20453;-80
2023/03/25 12:38:20;;;;;;;22.37;5.33;;;14.00;99.90;;;;;;6276711;22;20239;-80
2023/03/25 12:41:04;;;;;;;22.60;5.73;;;13.90;99.90;;;;;;6276908;22;20161;-78
2023/03/25 12:43:42;;;;;;;25.10;5.50;;;13.90;99.90;;;;;;6277245;22;20171;-83
2023/03/25 12:46:20;;;;;;;21.17;5.17;;;13.90;99.90;;;;;;6277263;22;20167;-78
2023/03/25 12:49:04;;;;;;;24.77;4.93;;;13.90;99.90;;;;;;6276199;22;20195;-79
2023/03/25 12:51:42;;;;;;;24.03;4.90;;;13.90;99.90;;;;;;6276233;22;20192;-80
2023/03/25 12:54:27;;;;;;;22.53;5.10;;;13.80;99.90;;;;;;6275477;22;20169;-77
2023/03/25 12:57:09;;;;;;;23.40;6.07;;;13.80;99.90;;;;;;6275949;22;20243;-77
2023/03/25 13:00:00;;;;;;;22.50;4.43;;;13.90;99.90;;;;;;6276775;22;20160;-77
2023/03/25 13:02:51;;;;;;;22.40;4.97;;;14.00;99.90;;;;;;6275404;22;20165;-79
2023/03/25 13:05:23;;;;;;;19.10;5.03;;;14.00;99.90;;;;;;6276346;22;20169;-79